EPRZ/RZE METAR and TAF weather

Enter ICAO airport designator
Station Type Date Time Source
EPRZ METAR 2022/01/25 05:00 UTC NOAA

EPRZ 250500Z 25009KT 5000 BR BKN005 M03/M05 Q1028


Station Type Date Time Source
EPRZ Decoded METAR 2022/01/25 05:00 UTC NOAA

Rzeszow-Jasionka, Poland (EPRZ) 50-06N 022-03E 202M
Jan 25, 2022 - 12:00 AM EST / 2022.01.25 0500 UTC
Wind: from the WSW (250 degrees) at 10 MPH (9 KT):0
Visibility: 3 mile(s):0
Sky conditions: mostly cloudy
Weather: mist
Temperature: 26 F (-3 C)
Windchill: 15 F (-9 C):1
Dew Point: 23 F (-5 C)
Relative Humidity: 86%
Pressure (altimeter): 30.36 in. Hg (1028 hPa)
ob: EPRZ 250500Z 25009KT 5000 BR BKN005 M03/M05 Q1028
cycle: 5

Station Type Date Time Source
EPRZ TAF 2022/01/24 19:52 UTC NOAA

TAF
AMD EPRZ 241938Z 2419/2518 VRB02KT 1200 BR BKN040
BECMG 2420/2423 6000
FM250300 22005KT 4000 -SN BR BKN014
TEMPO 2503/2518 2000 SN BR OVC006 PROB40
TEMPO 2503/2508 1200 SN BR OVC002
BECMG 2508/2511 28010KT

Example: see airport list